Time;durP1;ratioP1;P1;durP2;ratioP2;P2;SDS_P1;SDS_P2;PMS_P1;PMS_P2;Temp;Humidity;BMP_temperature;BMP_pressure;BME280_temperature;BME280_humidity;BME280_pressure;Samples;Min_cycle;Max_cycle;Signal;HPM_P1;HPM_P2
2023/04/27 00:01:42;;;;;;;1.40;1.30;;;;;;;-143.84;82.29;45077.63;4973780;28;20801;-60
2023/04/27 00:04:09;;;;;;;1.70;1.60;;;;;;;-143.84;82.35;45071.91;4973673;28;20445;-60
2023/04/27 00:06:36;;;;;;;3.10;1.30;;;;;;;-143.84;82.35;45075.72;4973406;28;20229;-60
2023/04/27 00:09:05;;;;;;;1.40;1.30;;;;;;;-143.84;81.58;45117.63;4973265;28;20441;-60
2023/04/27 00:11:32;;;;;;;2.90;1.20;;;;;;;-143.84;81.63;45130.94;4973456;28;20446;-59
2023/04/27 00:13:59;;;;;;;1.80;1.70;;;;;;;-143.84;81.74;45094.78;4973702;28;21349;-60
2023/04/27 00:16:26;;;;;;;4.70;1.50;;;;;;;-143.84;81.58;45115.72;4973297;28;20207;-59
2023/04/27 00:18:54;;;;;;;1.60;1.47;;;;;;;-143.84;81.72;45100.47;4973258;28;20469;-60
2023/04/27 00:21:21;;;;;;;7.97;1.60;;;;;;;-143.84;81.81;45106.19;4973156;28;20449;-60
2023/04/27 00:23:48;;;;;;;3.27;1.60;;;;;;;-143.84;81.82;45085.25;4973038;28;20508;-59
2023/04/27 00:26:17;;;;;;;3.50;1.90;;;;;;;-143.84;81.92;45077.63;4972853;28;20539;-60
2023/04/27 00:28:44;;;;;;;1.45;1.35;;;;;;;-143.84;81.27;45123.34;4973192;28;20476;-60
2023/04/27 00:31:11;;;;;;;3.35;1.20;;;;;;;-143.84;81.04;45157.59;4972806;28;20210;-60
2023/04/27 00:33:38;;;;;;;1.63;1.53;;;;;;;-143.84;80.46;45119.53;4971186;28;20194;-60
2023/04/27 00:36:06;;;;;;;1.60;1.43;;;;;;;-143.84;79.98;45172.84;4971928;28;20448;-60
2023/04/27 00:38:33;;;;;;;1.63;1.52;;;;;;;-143.84;79.42;45144.28;4971722;28;20446;-60
2023/04/27 00:41:04;;;;;;;3.10;1.47;;;;;;;-143.84;79.00;45170.94;4972412;28;20198;-60
2023/04/27 00:43:33;;;;;;;1.40;1.30;;;;;;;-143.84;78.60;45144.28;4971890;28;20536;-60
2023/04/27 00:46:00;;;;;;;4.30;1.87;;;;;;;-143.84;78.70;45180.47;4971833;28;20492;-60
2023/04/27 00:48:28;;;;;;;3.67;1.80;;;;;;;-143.84;78.37;45197.59;4972157;28;20878;-60
2023/04/27 00:50:55;;;;;;;2.87;1.30;;;;;;;-143.84;78.28;45121.44;4972407;28;20214;-60
2023/04/27 00:53:22;;;;;;;2.70;1.33;;;;;;;-143.84;78.00;45184.25;4972500;28;20508;-61
2023/04/27 00:55:49;;;;;;;1.40;1.30;;;;;;;-143.84;77.91;45180.47;4972641;28;20532;-61
2023/04/27 00:58:16;;;;;;;3.53;1.23;;;;;;;-143.84;77.40;45167.13;4972420;28;20457;-60
2023/04/27 01:00:45;;;;;;;1.43;1.30;;;;;;;-143.84;77.09;45178.56;4972421;28;20497;-60
2023/04/27 01:03:12;;;;;;;1.60;1.50;;;;;;;-143.84;76.89;45193.78;4972400;28;20488;-60
2023/04/27 01:05:39;;;;;;;1.87;1.40;;;;;;;-143.84;76.83;45159.50;4972290;28;20496;-60
2023/04/27 01:08:06;;;;;;;1.43;1.10;;;;;;;-143.84;76.83;45174.75;4972183;28;20446;-60
2023/04/27 01:10:33;;;;;;;1.45;1.35;;;;;;;-143.84;76.28;45163.31;4972181;28;20437;-60
2023/04/27 01:13:00;;;;;;;2.20;1.33;;;;;;;-143.84;75.95;45163.31;4971969;28;20234;-60
2023/04/27 01:15:28;;;;;;;5.63;1.40;;;;;;;-143.84;75.13;45186.16;4972228;28;20976;-60
2023/04/27 01:18:00;;;;;;;5.43;1.90;;;;;;;-143.84;75.89;45184.25;4971622;28;20489;-62
2023/04/27 01:20:29;;;;;;;7.20;2.13;;;;;;;-143.84;75.32;45170.94;4971929;28;20438;-60
2023/04/27 01:22:56;;;;;;;3.30;2.00;;;;;;;-143.84;75.09;45197.59;4972052;28;20530;-60
2023/04/27 01:25:25;;;;;;;1.87;1.77;;;;;;;-143.84;74.94;45157.59;4972060;28;20520;-60
2023/04/27 01:27:53;;;;;;;6.23;2.70;;;;;;;-143.84;75.15;45207.13;4971797;28;20544;-60
2023/04/27 01:30:21;;;;;;;3.20;2.70;;;;;;;-143.84;75.55;45186.16;4971773;28;20490;-60
2023/04/27 01:32:48;;;;;;;2.40;2.20;;;;;;;-143.84;75.13;45178.56;4971698;28;20516;-60
2023/04/27 01:35:16;;;;;;;2.65;2.45;;;;;;;-143.84;75.54;45203.31;4971958;28;20829;-60
2023/04/27 01:37:43;;;;;;;3.73;2.40;;;;;;;-143.84;75.17;45203.31;4971618;28;20210;-60
2023/04/27 01:40:11;;;;;;;2.53;2.33;;;;;;;-143.84;75.90;45176.66;4971719;28;20437;-60
2023/04/27 01:42:39;;;;;;;2.97;2.67;;;;;;;-143.84;75.58;45170.94;4971580;28;20206;-59
2023/04/27 01:45:08;;;;;;;3.07;2.70;;;;;;;-143.84;75.72;45174.75;4970900;28;20805;-60
2023/04/27 01:47:35;;;;;;;2.50;2.17;;;;;;;-143.84;75.98;45189.97;4971528;28;21011;-59
2023/04/27 01:50:03;;;;;;;2.70;2.50;;;;;;;-143.84;75.94;45170.94;4971589;28;20953;-60
2023/04/27 01:52:30;;;;;;;5.10;2.00;;;;;;;-143.84;76.01;45180.47;4971288;28;20438;-60
2023/04/27 01:54:57;;;;;;;2.90;2.70;;;;;;;-143.84;76.68;45197.59;4971282;28;21006;-60
2023/04/27 01:57:24;;;;;;;4.70;2.77;;;;;;;-143.84;76.55;45188.06;4971391;28;20860;-60
2023/04/27 01:59:52;;;;;;;3.33;3.03;;;;;;;-143.84;76.26;45197.59;4971138;28;20450;-60
2023/04/27 02:02:19;;;;;;;3.00;2.80;;;;;;;-143.84;76.72;45176.66;4970980;28;20457;-59
2023/04/27 02:04:46;;;;;;;2.88;2.67;;;;;;;-143.84;76.49;45189.97;4971185;28;20441;-60
2023/04/27 02:07:14;;;;;;;3.43;3.13;;;;;;;-143.84;76.23;45180.47;4971114;28;20248;-60
2023/04/27 02:09:41;;;;;;;5.97;3.17;;;;;;;-143.84;75.91;45191.88;4971106;28;21003;-60
2023/04/27 02:12:08;;;;;;;3.63;3.33;;;;;;;-143.84;75.72;45203.31;4971039;28;20864;-59
2023/04/27 02:14:35;;;;;;;5.20;3.00;;;;;;;-143.84;75.89;45191.88;4970836;28;20443;-60
2023/04/27 02:17:03;;;;;;;5.87;3.50;;;;;;;-143.84;75.75;45201.41;4971037;28;20449;-60
2023/04/27 02:19:31;;;;;;;5.03;3.60;;;;;;;-143.84;76.12;45189.97;4970848;28;20560;-60
2023/04/27 02:21:58;;;;;;;8.03;3.67;;;;;;;-143.84;75.58;45205.22;4970979;28;20204;-59
2023/04/27 02:24:25;;;;;;;5.20;3.40;;;;;;;-143.84;75.16;45203.31;4970903;28;20446;-60
2023/04/27 02:26:52;;;;;;;3.90;3.50;;;;;;;-143.84;75.21;45212.84;4970628;28;20481;-60
2023/04/27 02:29:19;;;;;;;3.90;3.53;;;;;;;-143.84;74.30;45193.78;4970591;28;20241;-61
2023/04/27 02:31:46;;;;;;;9.53;4.47;;;;;;;-143.84;74.45;45199.50;4970645;28;20454;-60
2023/04/27 02:34:15;;;;;;;9.70;4.23;;;;;;;-143.84;74.72;45186.16;4970846;28;21146;-60
2023/04/27 02:36:42;;;;;;;6.10;4.00;;;;;;;-143.84;74.53;45195.69;4970700;28;20789;-60
2023/04/27 02:39:09;;;;;;;10.60;3.90;;;;;;;-143.84;74.47;45180.47;4970788;28;20442;-59
2023/04/27 02:41:36;;;;;;;8.80;4.43;;;;;;;-143.84;74.47;45189.97;4970305;28;20450;-59
2023/04/27 02:44:03;;;;;;;4.60;4.10;;;;;;;-143.84;74.50;45210.94;4970343;28;20445;-60
2023/04/27 02:46:30;;;;;;;5.43;4.93;;;;;;;-143.84;74.23;45178.56;4970393;28;20490;-59
2023/04/27 02:48:58;;;;;;;7.53;4.40;;;;;;;-143.84;73.96;45186.16;4970389;28;20534;-60
2023/04/27 02:51:26;;;;;;;7.30;4.30;;;;;;;-143.84;74.39;45191.88;4970471;28;20449;-59
2023/04/27 02:53:54;;;;;;;5.07;4.15;;;;;;;-143.84;73.69;45191.88;4970373;28;20268;-59
2023/04/27 02:56:21;;;;;;;12.47;3.90;;;;;;;-143.84;73.96;45216.63;4969721;28;20265;-61
2023/04/27 02:58:48;;;;;;;5.83;4.60;;;;;;;-143.84;74.02;45216.63;4970204;28;20442;-61
2023/04/27 03:01:16;;;;;;;6.20;4.30;;;;;;;-143.84;74.11;45205.22;4970202;28;20508;-61
2023/04/27 03:03:46;;;;;;;8.30;4.20;;;;;;;-143.84;74.08;45178.56;4970198;28;20442;-61
2023/04/27 03:06:13;;;;;;;9.53;3.80;;;;;;;-143.84;74.19;45197.59;4969943;28;20466;-60
2023/04/27 03:08:42;;;;;;;6.00;4.33;;;;;;;-143.84;73.61;45228.06;4970242;28;20784;-60
2023/04/27 03:11:09;;;;;;;10.87;4.93;;;;;;;-143.84;74.25;45199.50;4970190;28;20441;-60
2023/04/27 03:13:40;;;;;;;8.27;3.80;;;;;;;-143.84;74.06;45189.97;4968579;28;20513;-60
2023/04/27 03:16:10;;;;;;;7.57;4.10;;;;;;;-143.84;73.94;45186.16;4950595;28;20466;-60
2023/04/27 03:18:37;;;;;;;4.80;4.20;;;;;;;-143.84;73.42;45188.06;4950523;28;20493;-59
2023/04/27 03:21:09;;;;;;;4.60;3.03;;;;;;;-143.84;73.76;45212.84;4950769;28;20519;-60
2023/04/27 03:23:37;;;;;;;6.13;4.07;;;;;;;-143.84;73.32;45186.16;4950775;29;20447;-61
2023/04/27 03:26:09;;;;;;;8.50;4.27;;;;;;;-143.84;73.93;45201.41;4950917;28;20438;-61
2023/04/27 03:28:36;;;;;;;9.27;4.40;;;;;;;-143.84;74.04;45176.66;4951191;28;20577;-60
2023/04/27 03:31:06;;;;;;;8.90;4.03;;;;;;;-143.84;73.61;45220.44;4951072;28;20537;-59
2023/04/27 03:33:33;;;;;;;17.07;5.83;;;;;;;-143.84;73.53;45220.44;4950709;29;20447;-60
2023/04/27 03:36:00;;;;;;;4.70;3.40;;;;;;;-143.84;73.19;45205.22;4950648;28;20447;-60
2023/04/27 03:38:28;;;;;;;5.18;4.13;;;;;;;-143.84;73.38;45184.25;4950618;28;20446;-60
2023/04/27 03:40:55;;;;;;;6.47;4.00;;;;;;;-143.84;72.80;45191.88;4950415;28;20231;-60
2023/04/27 03:43:24;;;;;;;7.13;4.33;;;;;;;-143.84;73.58;45189.97;4950660;29;20482;-59
2023/04/27 03:45:52;;;;;;;5.88;3.67;;;;;;;-143.84;73.17;45188.06;4954726;28;21134;-59
2023/04/27 03:48:19;;;;;;;6.13;4.63;;;;;;;-143.84;73.36;45220.44;4969895;28;20230;-62
2023/04/27 03:50:46;;;;;;;8.77;3.77;;;;;;;-143.84;73.36;45197.59;4970005;28;20450;-61
2023/04/27 03:53:14;;;;;;;13.10;5.27;;;;;;;-143.84;73.57;45205.22;4972800;28;20477;-60
2023/04/27 03:55:42;;;;;;;4.60;3.83;;;;;;;-143.84;72.64;45214.72;4989059;28;20795;-60
2023/04/27 03:58:10;;;;;;;7.43;4.40;;;;;;;-143.84;71.82;45188.06;4989109;28;20440;-60
2023/04/27 04:00:39;;;;;;;5.73;4.00;;;;;;;-143.84;71.27;45201.41;4989237;28;20503;-61
2023/04/27 04:03:07;;;;;;;8.70;4.20;;;;;;;-143.84;70.94;45212.84;4971648;28;20462;-61
2023/04/27 04:05:35;;;;;;;6.10;4.20;;;;;;;-143.84;70.91;45186.16;4969876;28;20449;-60
2023/04/27 04:08:02;;;;;;;8.13;3.88;;;;;;;-143.84;71.35;45212.84;4971882;28;20487;-61
2023/04/27 04:10:29;;;;;;;10.23;4.00;;;;;;;-143.84;70.87;45210.94;4972998;28;20218;-60
2023/04/27 04:12:56;;;;;;;9.32;4.57;;;;;;;-143.84;71.17;45167.13;4973184;28;20477;-61
2023/04/27 04:15:24;;;;;;;6.97;4.30;;;;;;;-143.84;71.11;45189.97;4973272;28;20202;-60
2023/04/27 04:17:52;;;;;;;8.93;3.72;;;;;;;-143.84;70.98;45178.56;4973295;28;20441;-62
2023/04/27 04:20:19;;;;;;;10.17;3.70;;;;;;;-143.84;70.48;45195.69;4973153;28;20209;-60
2023/04/27 04:22:46;;;;;;;7.83;4.67;;;;;;;-143.84;69.52;45193.78;4972641;28;20493;-60
2023/04/27 04:25:14;;;;;;;6.25;4.20;;;;;;;-143.84;67.81;45180.47;4972794;28;20878;-60
2023/04/27 04:27:41;;;;;;;7.73;3.83;;;;;;;-143.84;66.86;45188.06;4972766;28;20234;-60
2023/04/27 04:30:09;;;;;;;7.00;4.40;;;;;;;-143.84;66.08;45155.69;4972761;28;20445;-60
2023/04/27 04:32:37;;;;;;;9.75;4.05;;;;;;;-143.84;65.23;45172.84;4973042;28;20449;-60
2023/04/27 04:35:06;;;;;;;11.70;4.23;;;;;;;-143.84;64.40;45167.13;4972942;28;20299;-59
2023/04/27 04:37:35;;;;;;;4.63;4.23;;;;;;;-143.84;64.23;45186.16;4973021;28;20437;-60
2023/04/27 04:40:07;;;;;;;5.87;3.80;;;;;;;-143.84;64.85;45195.69;4972512;28;20948;-60
2023/04/27 04:42:36;;;;;;;7.30;3.53;;;;;;;-143.84;64.85;45167.13;4972413;28;20493;-60
2023/04/27 04:45:04;;;;;;;5.17;4.37;;;;;;;-143.84;64.65;45178.56;4972829;28;20448;-60
2023/04/27 04:47:32;;;;;;;6.07;3.80;;;;;;;-143.84;65.47;45193.78;4972232;28;20489;-60
2023/04/27 04:50:00;;;;;;;8.33;4.23;;;;;;;-143.84;64.96;45176.66;4972588;28;20456;-60
2023/04/27 04:52:28;;;;;;;8.30;3.57;;;;;;;-143.84;64.96;45159.50;4972620;28;20540;-60
2023/04/27 04:54:56;;;;;;;7.60;3.67;;;;;;;-143.84;64.32;45216.63;4972433;28;20450;-60
2023/04/27 04:57:23;;;;;;;5.43;4.20;;;;;;;-143.84;63.46;45161.41;4972375;28;20461;-60
2023/04/27 04:59:50;;;;;;;5.78;3.70;;;;;;;-143.84;63.07;45189.97;4972271;28;20609;-60
2023/04/27 05:02:17;;;;;;;3.87;3.33;;;;;;;-143.84;63.74;45184.25;4972556;28;20265;-60
2023/04/27 05:04:44;;;;;;;6.45;3.63;;;;;;;-143.84;64.11;45172.84;4972357;28;20446;-61
2023/04/27 05:07:11;;;;;;;6.03;3.33;;;;;;;-143.84;64.70;45176.66;4972304;28;20680;-60
2023/04/27 05:09:40;;;;;;;6.80;3.90;;;;;;;-143.84;64.94;45182.38;4971512;28;20517;-60
2023/04/27 05:12:08;;;;;;;7.53;4.03;;;;;;;-143.84;65.88;45184.25;4971247;28;20446;-61
2023/04/27 05:14:35;;;;;;;7.87;3.90;;;;;;;-143.84;66.44;45174.75;4971629;28;20457;-60
2023/04/27 05:17:02;;;;;;;7.80;4.00;;;;;;;-143.84;66.46;45188.06;4971316;28;20466;-60
2023/04/27 05:19:30;;;;;;;8.83;4.00;;;;;;;-143.84;67.47;45186.16;4970423;28;20485;-60
2023/04/27 05:21:58;;;;;;;9.40;4.57;;;;;;;-143.84;67.71;45178.56;4971596;28;20449;-60
2023/04/27 05:24:25;;;;;;;7.23;4.00;;;;;;;-143.84;67.96;45203.31;4972022;28;20964;-61
2023/04/27 05:26:54;;;;;;;5.20;4.47;;;;;;;-143.84;68.01;45216.63;4972418;28;20452;-61
2023/04/27 05:29:21;;;;;;;8.00;4.67;;;;;;;-143.84;67.70;45170.94;4972316;28;20948;-61
2023/04/27 05:31:48;;;;;;;17.37;5.33;;;;;;;-143.84;66.84;45176.66;4971975;28;20437;-60
2023/04/27 05:34:16;;;;;;;8.80;4.13;;;;;;;-143.84;66.48;45220.44;4971938;28;20508;-60
2023/04/27 05:36:43;;;;;;;9.23;4.43;;;;;;;-143.84;65.96;45197.59;4971642;28;20438;-60
2023/04/27 05:39:10;;;;;;;7.63;4.17;;;;;;;-143.84;66.40;45161.41;4972249;28;20443;-60
2023/04/27 05:41:37;;;;;;;10.05;4.53;;;;;;;-143.84;65.43;45167.13;4971737;28;20500;-60
2023/04/27 05:44:06;;;;;;;7.30;4.38;;;;;;;-143.84;64.51;45216.63;4971684;28;20721;-60
2023/04/27 05:46:33;;;;;;;8.95;4.13;;;;;;;-143.84;64.31;45189.97;4971501;28;20199;-60
2023/04/27 05:49:00;;;;;;;6.07;4.07;;;;;;;-143.84;63.65;45155.69;4971396;28;20724;-60
2023/04/27 05:51:28;;;;;;;12.73;3.97;;;;;;;-143.84;63.46;45188.06;4971375;28;20504;-61
2023/04/27 05:53:55;;;;;;;5.18;4.05;;;;;;;-143.84;62.80;45172.84;4971691;28;20883;-61
2023/04/27 05:56:22;;;;;;;7.13;4.30;;;;;;;-143.84;63.34;45207.13;4971338;28;20697;-61
2023/04/27 05:58:50;;;;;;;7.70;4.32;;;;;;;-143.84;63.83;45186.16;4971294;28;20496;-61
2023/04/27 06:01:19;;;;;;;8.30;3.90;;;;;;;-143.84;62.12;45159.50;4971304;28;20229;-61
2023/04/27 06:03:46;;;;;;;6.45;3.50;;;;;;;-143.84;62.15;45176.66;4971137;28;20446;-60
2023/04/27 06:06:13;;;;;;;3.80;3.50;;;;;;;-143.84;62.52;45176.66;4970878;28;20248;-61
2023/04/27 06:08:40;;;;;;;6.75;3.05;;;;;;;-143.84;62.66;45191.88;4970786;28;20489;-60
2023/04/27 06:11:07;;;;;;;8.80;4.07;;;;;;;-143.84;62.60;45167.13;4971115;28;20202;-60
2023/04/27 06:13:34;;;;;;;6.20;4.07;;;;;;;-143.84;61.38;45176.66;4970987;28;20465;-60
2023/04/27 06:16:02;;;;;;;10.13;3.90;;;;;;;-143.84;61.08;45209.03;4971002;28;20445;-61
2023/04/27 06:18:30;;;;;;;6.10;3.50;;;;;;;-143.84;60.38;45163.31;4970714;28;20477;-60
2023/04/27 06:21:01;;;;;;;7.17;5.33;;;;;;;-143.84;60.94;45191.88;4971028;28;20599;-61
2023/04/27 06:23:28;;;;;;;7.07;4.00;;;;;;;-143.84;60.26;45216.63;4970821;28;20537;-61
2023/04/27 06:25:57;;;;;;;4.77;3.70;;;;;;;-143.84;59.98;45189.97;4970889;28;20874;-61
2023/04/27 06:28:24;;;;;;;3.92;3.58;;;;;;;-143.84;58.47;45180.47;4970630;28;20489;-61
2023/04/27 06:30:51;;;;;;;6.90;4.07;;;;;;;-143.84;57.67;45169.03;4970760;28;20438;-60
2023/04/27 06:33:18;;;;;;;3.78;3.15;;;;;;;-143.84;57.68;45174.75;4970774;28;20208;-61
2023/04/27 06:35:47;;;;;;;6.87;4.43;;;;;;;-143.84;56.74;45169.03;4970573;28;20285;-60
2023/04/27 06:38:14;;;;;;;6.77;4.20;;;;;;;-143.84;55.49;45163.31;4970751;28;20449;-60
2023/04/27 06:40:41;;;;;;;8.20;3.17;;;;;;;-143.84;53.92;45159.50;4970690;28;20444;-60
2023/04/27 06:43:08;;;;;;;8.10;3.28;;;;;;;-143.84;52.57;45165.22;4970712;28;20437;-61
2023/04/27 06:45:36;;;;;;;11.10;3.90;;;;;;;-143.84;51.13;45170.94;4970692;28;20202;-61
2023/04/27 06:48:03;;;;;;;4.45;3.33;;;;;;;-143.84;51.73;45138.56;4970464;28;20481;-61
2023/04/27 06:50:30;;;;;;;6.37;3.57;;;;;;;-143.84;49.24;45148.09;4970469;28;20258;-60
2023/04/27 06:52:58;;;;;;;5.17;3.73;;;;;;;-143.84;49.23;45155.69;4970644;28;20441;-61
2023/04/27 06:55:26;;;;;;;15.17;3.53;;;;;;;-143.84;49.66;45174.75;4970674;28;20514;-61
2023/04/27 06:57:53;;;;;;;4.70;3.20;;;;;;;-143.84;48.79;45151.91;4970472;28;20446;-60
2023/04/27 07:00:20;;;;;;;13.03;4.37;;;;;;;-143.84;49.11;45176.66;4970462;28;20450;-60
2023/04/27 07:02:47;;;;;;;8.60;3.63;;;;;;;-143.84;48.28;45146.19;4970713;28;20490;-61
2023/04/27 07:05:14;;;;;;;9.50;2.70;;;;;;;-143.84;48.25;45150.00;4970412;28;20450;-61
2023/04/27 07:07:42;;;;;;;4.47;2.72;;;;;;;-143.84;48.39;45167.13;4970487;28;20460;-60
2023/04/27 07:10:11;;;;;;;3.33;2.90;;;;;;;-143.84;47.08;45125.22;4970390;28;21006;-61
2023/04/27 07:12:38;;;;;;;6.23;3.47;;;;;;;-143.84;48.20;45155.69;4970574;28;20196;-60
2023/04/27 07:15:06;;;;;;;12.80;3.87;;;;;;;-143.84;48.91;45150.00;4970422;28;20498;-61
2023/04/27 07:17:33;;;;;;;6.93;3.70;;;;;;;-143.84;49.58;45182.38;4970123;28;20453;-60
2023/04/27 07:20:02;;;;;;;3.00;2.70;;;;;;;-143.84;49.33;45180.47;4969990;28;20544;-60
2023/04/27 07:22:29;;;;;;;4.40;3.30;;;;;;;-143.84;48.60;45155.69;4970147;28;20454;-60
2023/04/27 07:24:57;;;;;;;9.07;3.03;;;;;;;-143.84;48.40;45167.13;4970096;28;20214;-60
2023/04/27 07:27:26;;;;;;;7.00;3.70;;;;;;;-143.84;48.79;45161.41;4970221;28;20447;-60
2023/04/27 07:29:53;;;;;;;5.53;3.08;;;;;;;-143.84;48.89;45136.66;4969978;28;20492;-60
2023/04/27 07:32:21;;;;;;;6.33;3.00;;;;;;;-143.84;49.08;45113.81;4970008;28;20234;-60
2023/04/27 07:34:49;;;;;;;3.50;3.20;;;;;;;-143.84;49.01;45142.38;4969950;28;20932;-60
2023/04/27 07:37:17;;;;;;;6.13;3.10;;;;;;;-143.84;48.51;45134.75;4970160;28;20542;-60
2023/04/27 07:39:45;;;;;;;4.77;3.13;;;;;;;-143.84;47.80;45153.81;4970106;28;20526;-60
2023/04/27 07:42:12;;;;;;;10.53;3.67;;;;;;;-143.84;47.96;45174.75;4970891;28;20443;-60
2023/04/27 07:44:41;;;;;;;11.30;3.53;;;;;;;-143.84;48.54;45151.91;4974102;28;20445;-61
2023/04/27 07:47:08;;;;;;;5.10;3.40;;;;;;;-143.84;47.44;45140.47;4973802;28;20551;-61
2023/04/27 07:49:36;;;;;;;9.00;3.13;;;;;;;-143.84;46.66;45136.66;4973722;28;20485;-61
2023/04/27 07:52:04;;;;;;;7.17;3.23;;;;;;;-143.84;46.70;45163.31;4973424;28;20476;-61
2023/04/27 07:54:31;;;;;;;11.43;3.10;;;;;;;-143.84;46.54;45167.13;4973828;28;20452;-61
2023/04/27 07:56:58;;;;;;;4.80;2.80;;;;;;;-143.84;46.27;45142.38;4973866;28;20564;-60
2023/04/27 07:59:29;;;;;;;9.88;2.88;;;;;;;-143.84;46.27;45138.56;4973668;28;20499;-60
2023/04/27 08:01:57;;;;;;;3.30;2.70;;;;;;;-143.84;45.88;45132.84;4973620;28;20293;-61
2023/04/27 08:04:25;;;;;;;2.77;2.57;;;;;;;-143.84;45.09;45157.59;4973633;28;20450;-60
2023/04/27 08:06:52;;;;;;;7.90;2.53;;;;;;;-143.84;44.10;45170.94;4973347;28;20843;-60
2023/04/27 08:09:20;;;;;;;3.83;2.90;;;;;;;-143.84;43.84;45159.50;4973429;28;20547;-61
2023/04/27 08:11:47;;;;;;;3.73;3.00;;;;;;;-143.84;44.19;45146.19;4973433;28;20533;-61
2023/04/27 08:14:14;;;;;;;6.60;2.47;;;;;;;-143.84;43.92;45155.69;4973397;28;20868;-61
2023/04/27 08:16:42;;;;;;;4.33;2.27;;;;;;;-143.84;44.20;45155.69;4973147;28;20449;-60
2023/04/27 08:19:11;;;;;;;7.00;2.87;;;;;;;-143.84;45.23;45157.59;4972982;28;20489;-61
2023/04/27 08:21:39;;;;;;;7.57;2.80;;;;;;;-143.84;44.34;45140.47;4973066;28;20445;-61
2023/04/27 08:24:07;;;;;;;4.07;2.73;;;;;;;-143.84;44.16;45153.81;4973057;28;20456;-61
2023/04/27 08:26:34;;;;;;;8.57;2.50;;;;;;;-143.84;43.34;45165.22;4972993;28;20545;-61
2023/04/27 08:29:01;;;;;;;5.33;2.60;;;;;;;-143.84;44.33;45144.28;4973125;28;20549;-61
2023/04/27 08:31:28;;;;;;;5.00;3.20;;;;;;;-143.84;43.22;45161.41;4972811;28;20461;-61
2023/04/27 08:33:57;;;;;;;6.83;3.03;;;;;;;-143.84;42.39;45155.69;4972793;28;20746;-61
2023/04/27 08:36:27;;;;;;;3.33;2.80;;;;;;;-143.84;41.88;45148.09;4972748;28;20448;-61
2023/04/27 08:38:54;;;;;;;6.80;2.87;;;;;;;-143.84;41.54;45142.38;4973026;28;20484;-61
2023/04/27 08:41:22;;;;;;;2.73;2.00;;;;;;;-143.84;41.67;45150.00;4972453;28;20445;-60
2023/04/27 08:43:50;;;;;;;11.02;2.50;;;;;;;-143.84;42.01;45132.84;4972676;28;20449;-61
2023/04/27 08:46:21;;;;;;;10.97;3.10;;;;;;;-143.84;42.06;45144.28;4972448;28;20205;-61
2023/04/27 08:48:50;;;;;;;7.60;2.17;;;;;;;-143.84;41.48;45155.69;4972765;28;20571;-61
2023/04/27 08:51:18;;;;;;;7.77;2.10;;;;;;;-143.84;41.28;45144.28;4973014;28;20441;-61
2023/04/27 08:53:51;;;;;;;10.23;2.45;;;;;;;-143.84;41.23;45146.19;4971427;28;20445;-60
2023/04/27 08:56:19;;;;;;;3.30;2.60;;;;;;;-143.84;41.23;45155.69;4972504;28;20198;-61
2023/04/27 08:58:46;;;;;;;8.57;2.53;;;;;;;-143.84;40.86;45146.19;4972410;28;20450;-60
2023/04/27 09:01:13;;;;;;;8.67;2.70;;;;;;;-143.84;42.02;45132.84;4972179;28;20203;-61
2023/04/27 09:03:40;;;;;;;3.63;2.50;;;;;;;-143.84;42.13;45161.41;4972297;28;20453;-61
2023/04/27 09:06:08;;;;;;;6.60;2.20;;;;;;;-143.84;41.25;45136.66;4972400;28;20445;-61
2023/04/27 09:08:42;;;;;;;5.60;2.50;;;;;;;-143.84;40.50;45146.19;4972230;28;20568;-61
2023/04/27 09:11:11;;;;;;;5.50;2.30;;;;;;;-143.84;40.68;45134.75;4971939;28;20960;-61
2023/04/27 09:13:39;;;;;;;3.00;2.20;;;;;;;-143.84;40.86;45129.03;4972309;28;20528;-61
2023/04/27 09:16:06;;;;;;;5.27;2.60;;;;;;;-143.84;39.96;45132.84;4972272;28;20826;-61
2023/04/27 09:18:36;;;;;;;4.45;2.63;;;;;;;-143.84;39.39;45125.22;4971755;28;20565;-61
2023/04/27 09:21:05;;;;;;;3.73;2.20;;;;;;;-143.84;39.16;45119.53;4972181;28;20281;-61
2023/04/27 09:23:34;;;;;;;6.80;3.13;;;;;;;-143.84;38.48;45125.22;4971959;28;20442;-61
2023/04/27 09:26:02;;;;;;;3.33;2.90;;;;;;;-143.84;38.85;45151.91;4972162;28;20442;-61
2023/04/27 09:28:31;;;;;;;3.20;1.97;;;;;;;-143.84;39.42;45123.34;4971969;28;20198;-61
2023/04/27 09:31:00;;;;;;;5.57;2.40;;;;;;;-143.84;38.95;45110.00;4971900;28;20804;-61
2023/04/27 09:33:29;;;;;;;4.47;2.03;;;;;;;-143.84;38.45;45134.75;4971677;28;20201;-61
2023/04/27 09:35:57;;;;;;;9.30;2.80;;;;;;;-143.84;37.76;45117.63;4971719;28;20448;-61
2023/04/27 09:38:24;;;;;;;6.03;2.67;;;;;;;-143.84;37.58;45098.56;4971454;28;20500;-61
2023/04/27 09:40:53;;;;;;;5.40;2.60;;;;;;;-143.84;36.49;45113.81;4970586;28;20459;-61
2023/04/27 09:43:20;;;;;;;12.03;2.70;;;;;;;-143.84;37.32;45104.28;4970439;28;20457;-61
2023/04/27 09:45:49;;;;;;;6.37;2.87;;;;;;;-143.84;37.81;45125.22;4971113;28;20445;-61
2023/04/27 09:48:17;;;;;;;10.52;2.80;;;;;;;-143.84;37.97;45136.66;4970895;28;20821;-61
2023/04/27 09:50:46;;;;;;;5.20;3.37;;;;;;;-143.84;37.88;45130.94;4970918;28;20208;-61
2023/04/27 09:53:15;;;;;;;17.60;3.20;;;;;;;-143.84;37.67;45090.97;4971573;28;20516;-61
2023/04/27 09:55:51;;;;;;;25.55;4.93;;;;;;;-143.84;38.61;45117.63;4971395;28;20444;-61
2023/04/27 09:58:51;;;;;;;7.10;3.30;;;;;;;-143.84;37.99;45140.47;4971208;28;20248;-61
2023/04/27 10:01:27;;;;;;;6.83;2.13;;;;;;;-143.84;37.02;45113.81;4948310;28;20512;-61
2023/04/27 10:04:09;;;;;;;6.63;2.45;;;;;;;-143.84;37.00;45110.00;4971351;28;20476;-61
2023/04/27 10:07:05;;;;;;;9.60;3.30;;;;;;;-143.84;37.44;45119.53;4970798;28;20202;-61
2023/04/27 10:09:36;;;;;;;6.00;2.03;;;;;;;-143.84;37.90;45125.22;4971284;28;20479;-61
2023/04/27 10:12:17;;;;;;;6.63;2.73;;;;;;;-143.84;37.53;45125.22;4971143;28;20265;-61
2023/04/27 10:14:52;;;;;;;5.37;2.30;;;;;;;-143.84;37.91;45125.22;4971242;28;21023;-61
2023/04/27 10:17:26;;;;;;;15.07;4.15;;;;;;;-143.84;38.48;45125.22;4971083;28;20457;-61
2023/04/27 10:19:55;;;;;;;7.17;2.90;;;;;;;-143.84;38.63;45146.19;4970808;28;20321;-61
2023/04/27 10:22:23;;;;;;;11.97;3.23;;;;;;;-143.84;38.62;45129.03;4970909;28;20528;-61
2023/04/27 10:24:51;;;;;;;5.83;3.10;;;;;;;-143.84;38.83;45123.34;4970855;28;20477;-61
2023/04/27 10:27:22;;;;;;;7.40;2.47;;;;;;;-143.84;39.61;45121.44;4970755;28;21134;-61
2023/04/27 10:29:50;;;;;;;5.72;2.53;;;;;;;-143.84;38.83;45129.03;4970572;28;20481;-61
2023/04/27 10:32:24;;;;;;;6.60;2.37;;;;;;;-143.84;39.06;45130.94;4970680;28;20258;-61
2023/04/27 10:34:52;;;;;;;7.57;2.50;;;;;;;-143.84;39.23;45117.63;4971081;28;21139;-61
2023/04/27 10:37:24;;;;;;;5.63;2.73;;;;;;;-143.84;38.05;45119.53;4970597;28;20513;-61
2023/04/27 10:39:52;;;;;;;4.78;2.50;;;;;;;-143.84;38.73;45127.13;4970814;28;20506;-61
2023/04/27 10:42:28;;;;;;;3.80;2.03;;;;;;;-143.84;38.28;45129.03;4970457;28;20210;-61
2023/04/27 10:44:57;;;;;;;7.70;2.23;;;;;;;-143.84;37.52;45104.28;4970601;28;20446;-61
2023/04/27 10:47:37;;;;;;;7.23;1.87;;;;;;;-143.84;38.63;45125.22;4970697;28;20453;-61
2023/04/27 10:50:06;;;;;;;7.60;2.37;;;;;;;-143.84;37.70;45098.56;4970332;28;20491;-61
2023/04/27 10:52:33;;;;;;;5.83;2.27;;;;;;;-143.84;38.15;45115.72;4970625;28;20449;-61
2023/04/27 10:55:12;;;;;;;10.10;3.25;;;;;;;-143.84;38.00;45117.63;4970310;28;20503;-61
2023/04/27 10:57:49;;;;;;;8.00;2.80;;;;;;;-143.84;37.50;45115.72;4970524;28;20257;-61
2023/04/27 11:00:23;;;;;;;8.63;3.03;;;;;;;-143.84;38.41;45115.72;4970343;28;20490;-61
2023/04/27 11:03:13;;;;;;;5.43;2.17;;;;;;;-143.84;37.29;45123.34;4970418;28;21130;-61
2023/04/27 11:05:41;;;;;;;6.40;2.33;;;;;;;-143.84;36.44;45110.00;4970240;28;20438;-61
2023/04/27 11:08:10;;;;;;;2.93;2.10;;;;;;;-143.84;38.48;45087.16;4970733;28;20429;-61
2023/04/27 11:10:40;;;;;;;5.33;2.10;;;;;;;-143.84;36.90;45090.97;4970062;28;20477;-61
2023/04/27 11:13:11;;;;;;;8.03;1.90;;;;;;;-143.84;38.07;45087.16;4970197;28;20453;-61
2023/04/27 11:15:45;;;;;;;8.50;2.73;;;;;;;-143.84;36.74;45098.56;4970175;28;20453;-61
2023/04/27 11:18:14;;;;;;;10.20;2.70;;;;;;;-143.84;36.38;45089.06;4969411;28;20489;-60
2023/04/27 11:20:42;;;;;;;9.17;2.60;;;;;;;-143.84;36.56;45092.88;4970085;28;21030;-60
2023/04/27 11:23:10;;;;;;;7.47;2.13;;;;;;;-143.84;36.05;45108.09;4970371;28;20464;-61